Time;durP1;ratioP1;P1;durP2;ratioP2;P2;SDS_P1;SDS_P2;PMS_P1;PMS_P2;Temp;Humidity;BMP_temperature;BMP_pressure;BME280_temperature;BME280_humidity;BME280_pressure;Samples;Min_cycle;Max_cycle;Signal;HPM_P1;HPM_P2
2021/05/09 00:01:16;;;;;;;5.27;4.83;;;11.00;99.90;;;;;;4991321;28;20233;-75
2021/05/09 00:03:43;;;;;;;4.43;4.13;;;10.90;99.90;;;;;;4990133;28;20733;-75
2021/05/09 00:06:09;;;;;;;4.67;4.37;;;10.90;99.90;;;;;;4969481;28;20224;-75
2021/05/09 00:08:35;;;;;;;6.80;6.40;;;10.80;99.90;;;;;;4963271;28;20614;-75
2021/05/09 00:11:03;;;;;;;7.20;6.60;;;10.70;99.90;;;;;;4985691;28;20213;-75
2021/05/09 00:13:29;;;;;;;7.20;6.70;;;10.70;99.90;;;;;;4987278;28;20194;-75
2021/05/09 00:15:56;;;;;;;7.60;7.07;;;10.60;99.90;;;;;;4987465;28;20190;-75
2021/05/09 00:18:22;;;;;;;7.30;6.80;;;10.60;99.90;;;;;;4991738;28;20421;-75
2021/05/09 00:20:49;;;;;;;7.40;6.90;;;10.50;99.90;;;;;;4990554;28;20217;-75
2021/05/09 00:23:15;;;;;;;7.93;7.33;;;10.40;99.90;;;;;;4991959;28;20205;-76
2021/05/09 00:25:41;;;;;;;8.27;7.67;;;10.30;99.90;;;;;;4970430;28;20877;-75
2021/05/09 00:28:08;;;;;;;8.87;8.07;;;10.30;99.90;;;;;;4987070;28;20208;-75
2021/05/09 00:30:35;;;;;;;8.33;7.73;;;10.20;99.90;;;;;;4987872;28;20209;-75
2021/05/09 00:33:01;;;;;;;8.10;7.50;;;10.20;99.90;;;;;;4973243;28;20275;-75
2021/05/09 00:35:28;;;;;;;9.10;8.20;;;10.20;99.90;;;;;;4970006;28;20204;-75
2021/05/09 00:37:54;;;;;;;8.30;7.70;;;10.10;99.90;;;;;;4968169;28;20209;-75
2021/05/09 00:40:20;;;;;;;9.00;8.30;;;10.00;99.90;;;;;;4984842;28;20595;-75
2021/05/09 00:42:47;;;;;;;9.33;8.53;;;10.00;99.90;;;;;;4989027;28;20205;-75
2021/05/09 00:45:14;;;;;;;9.20;8.43;;;9.90;99.90;;;;;;4987849;28;20213;-75
2021/05/09 00:47:41;;;;;;;8.90;8.20;;;9.90;99.90;;;;;;4988123;28;20190;-75
2021/05/09 00:50:09;;;;;;;8.93;8.33;;;9.80;99.90;;;;;;4974729;28;20205;-75
2021/05/09 00:52:38;;;;;;;8.40;7.80;;;9.80;99.90;;;;;;4970994;28;20678;-76
2021/05/09 00:55:07;;;;;;;9.20;8.30;;;9.80;99.90;;;;;;4986777;28;20219;-75
2021/05/09 00:57:35;;;;;;;8.13;7.53;;;9.80;99.90;;;;;;4986621;28;20197;-75
2021/05/09 01:00:05;;;;;;;8.30;7.40;;;9.80;99.90;;;;;;4984433;28;20697;-75
2021/05/09 01:02:33;;;;;;;8.47;7.77;;;9.80;99.90;;;;;;4989147;28;20232;-75
2021/05/09 01:05:00;;;;;;;7.30;6.80;;;9.70;99.90;;;;;;4969762;28;20718;-75
2021/05/09 01:07:27;;;;;;;5.37;4.97;;;9.70;99.90;;;;;;4991082;28;20761;-75
2021/05/09 01:09:55;;;;;;;5.33;4.83;;;9.60;99.90;;;;;;4970511;28;20202;-75
2021/05/09 01:12:21;;;;;;;3.33;3.03;;;9.60;99.90;;;;;;4988288;28;20235;-75
2021/05/09 01:14:47;;;;;;;3.27;2.97;;;9.60;99.90;;;;;;4965589;28;20200;-75
2021/05/09 01:17:15;;;;;;;4.50;3.50;;;9.60;99.90;;;;;;4984645;28;20244;-75
2021/05/09 01:19:42;;;;;;;7.30;6.70;;;9.60;99.90;;;;;;4970655;28;20197;-75
2021/05/09 01:22:11;;;;;;;4.73;4.30;;;9.50;99.90;;;;;;4965989;28;20298;-76
2021/05/09 01:24:38;;;;;;;3.83;2.90;;;9.50;99.90;;;;;;4970744;28;20200;-75
2021/05/09 01:27:05;;;;;;;4.17;3.33;;;9.50;99.90;;;;;;4986448;28;20236;-75
2021/05/09 01:29:32;;;;;;;4.33;3.43;;;9.50;99.90;;;;;;4968457;28;20310;-75
2021/05/09 01:32:00;;;;;;;7.67;6.97;;;9.50;99.90;;;;;;4967615;28;20249;-75
2021/05/09 01:34:33;;;;;;;8.07;7.47;;;9.40;99.90;;;;;;4969180;28;20684;-75
2021/05/09 01:37:01;;;;;;;7.37;6.77;;;9.50;99.90;;;;;;4971299;28;20223;-75
2021/05/09 01:39:28;;;;;;;7.00;6.50;;;9.50;99.90;;;;;;4984667;28;20205;-75
2021/05/09 01:41:56;;;;;;;7.60;7.00;;;9.40;99.90;;;;;;4972608;28;20640;-75
2021/05/09 01:44:22;;;;;;;8.00;7.30;;;9.40;99.90;;;;;;4987413;28;20214;-75
2021/05/09 01:46:49;;;;;;;7.73;7.13;;;9.40;99.90;;;;;;4969149;28;20701;-75
2021/05/09 01:49:15;;;;;;;7.50;7.00;;;9.30;99.90;;;;;;4986952;28;20206;-75
2021/05/09 01:51:42;;;;;;;7.53;6.83;;;9.30;99.90;;;;;;4968621;28;20440;-75
2021/05/09 01:54:08;;;;;;;8.17;7.57;;;9.30;99.90;;;;;;4974536;28;20657;-75
2021/05/09 01:56:35;;;;;;;7.27;6.77;;;9.30;99.90;;;;;;4970012;28;20634;-75
2021/05/09 01:59:03;;;;;;;8.20;7.50;;;9.30;99.90;;;;;;4967380;28;20299;-75
2021/05/09 02:01:36;;;;;;;8.37;7.67;;;9.30;99.90;;;;;;4984323;28;20315;-75
2021/05/09 02:04:20;;;;;;;8.47;7.77;;;9.20;99.90;;;;;;4965191;28;20669;-75
2021/05/09 02:06:46;;;;;;;8.27;7.67;;;9.20;99.90;;;;;;4970247;28;20221;-75
2021/05/09 02:09:13;;;;;;;8.47;7.77;;;9.20;99.90;;;;;;4990585;28;20203;-75
2021/05/09 02:11:42;;;;;;;8.60;7.90;;;9.20;99.90;;;;;;4972504;28;20613;-75
2021/05/09 02:14:19;;;;;;;8.80;8.10;;;9.10;99.90;;;;;;4978550;28;20227;-75
2021/05/09 02:16:50;;;;;;;8.40;7.70;;;9.20;99.90;;;;;;4975821;28;20286;-75
2021/05/09 02:19:19;;;;;;;8.43;7.73;;;9.10;99.90;;;;;;4965269;28;20307;-75
2021/05/09 02:21:49;;;;;;;8.37;7.70;;;9.20;99.90;;;;;;4970696;28;20258;-75
2021/05/09 02:24:15;;;;;;;8.30;7.60;;;9.10;99.90;;;;;;4993984;28;20294;-75
2021/05/09 02:26:44;;;;;;;8.10;7.50;;;9.10;99.90;;;;;;4970101;28;20720;-75
2021/05/09 02:29:10;;;;;;;8.10;7.40;;;9.10;99.90;;;;;;4971301;28;20211;-75
2021/05/09 02:31:39;;;;;;;8.73;8.03;;;9.00;99.90;;;;;;4974047;28;20705;-75
2021/05/09 02:34:15;;;;;;;7.50;7.00;;;9.00;99.90;;;;;;4993922;28;20628;-75
2021/05/09 02:36:44;;;;;;;7.80;7.20;;;8.90;99.90;;;;;;4974175;28;20200;-75
2021/05/09 02:39:11;;;;;;;7.60;7.10;;;8.90;99.90;;;;;;4968850;28;20208;-76
2021/05/09 02:41:37;;;;;;;8.13;7.43;;;8.90;99.90;;;;;;4957788;28;20649;-76
2021/05/09 02:44:05;;;;;;;8.20;7.50;;;8.80;99.90;;;;;;4960817;28;20255;-76
2021/05/09 02:46:32;;;;;;;7.77;7.17;;;8.70;99.90;;;;;;4971134;28;20245;-77
2021/05/09 02:48:58;;;;;;;8.27;7.67;;;8.70;99.90;;;;;;4972744;28;20207;-77
2021/05/09 02:51:25;;;;;;;8.13;7.53;;;8.70;99.90;;;;;;4989551;28;20222;-77
2021/05/09 02:53:52;;;;;;;8.10;7.50;;;8.70;99.90;;;;;;4963159;28;20202;-77
2021/05/09 02:56:19;;;;;;;8.57;7.80;;;8.60;99.90;;;;;;4960594;28;20197;-78
2021/05/09 02:58:45;;;;;;;8.17;7.47;;;8.60;99.90;;;;;;4944194;28;20255;-75
2021/05/09 03:01:13;;;;;;;7.80;7.10;;;8.70;99.90;;;;;;4975859;28;20435;-75
2021/05/09 03:03:39;;;;;;;8.00;7.40;;;8.70;99.90;;;;;;4956153;28;20203;-75
2021/05/09 03:06:06;;;;;;;8.67;7.90;;;8.80;99.90;;;;;;4946812;28;20215;-76
2021/05/09 03:08:35;;;;;;;8.60;7.90;;;8.80;99.90;;;;;;4961884;28;20205;-75
2021/05/09 03:11:03;;;;;;;8.60;7.90;;;8.90;99.90;;;;;;4966816;28;20232;-75
2021/05/09 03:13:31;;;;;;;8.27;7.67;;;8.90;99.90;;;;;;4963159;28;20216;-75
2021/05/09 03:15:58;;;;;;;7.60;7.10;;;8.90;99.90;;;;;;4989001;28;20207;-75
2021/05/09 03:18:26;;;;;;;8.30;7.60;;;8.90;99.90;;;;;;4967461;28;20704;-75
2021/05/09 03:20:52;;;;;;;8.37;7.67;;;8.90;99.90;;;;;;4988145;28;20238;-75
2021/05/09 03:23:19;;;;;;;7.83;7.23;;;8.90;99.90;;;;;;4978278;28;20710;-75
2021/05/09 03:25:46;;;;;;;8.50;7.90;;;8.90;99.90;;;;;;4986968;28;20231;-75
2021/05/09 03:28:13;;;;;;;8.63;7.93;;;8.80;99.90;;;;;;4984733;28;20209;-75
2021/05/09 03:30:39;;;;;;;9.50;8.63;;;8.80;99.90;;;;;;4983670;28;20227;-75
2021/05/09 03:33:06;;;;;;;8.27;7.57;;;8.70;99.90;;;;;;4966262;28;20258;-75
2021/05/09 03:35:37;;;;;;;9.57;7.90;;;8.70;99.90;;;;;;4982306;28;20196;-75
2021/05/09 03:38:05;;;;;;;8.47;7.87;;;8.70;99.90;;;;;;4987091;28;20580;-75
2021/05/09 03:40:32;;;;;;;8.23;7.53;;;8.70;99.90;;;;;;4978645;28;20223;-75
2021/05/09 03:42:58;;;;;;;8.97;8.37;;;8.60;99.90;;;;;;4969487;28;20216;-75
2021/05/09 03:45:24;;;;;;;9.03;8.40;;;8.50;99.90;;;;;;4987991;28;20218;-75
2021/05/09 03:47:51;;;;;;;8.67;7.97;;;8.50;99.90;;;;;;4979648;28;20205;-75
2021/05/09 03:50:17;;;;;;;8.87;8.17;;;8.50;99.90;;;;;;4982549;28;20195;-75
2021/05/09 03:52:44;;;;;;;8.73;8.03;;;8.50;99.90;;;;;;4984699;28;20572;-75
2021/05/09 03:55:11;;;;;;;8.57;7.97;;;8.50;99.90;;;;;;4964186;28;20667;-75
2021/05/09 03:57:37;;;;;;;8.73;8.03;;;8.50;99.90;;;;;;4980929;28;20190;-75
2021/05/09 04:00:04;;;;;;;8.47;7.87;;;8.50;99.90;;;;;;4985581;28;20644;-75
2021/05/09 04:02:40;;;;;;;8.40;7.80;;;8.60;99.90;;;;;;4986801;28;20246;-75
2021/05/09 04:05:09;;;;;;;9.00;8.20;;;8.60;99.90;;;;;;4978788;28;20207;-75
2021/05/09 04:07:36;;;;;;;8.90;8.20;;;8.60;99.90;;;;;;4968525;28;20216;-75
2021/05/09 04:10:04;;;;;;;8.67;7.97;;;8.50;99.90;;;;;;4966767;28;20212;-77
2021/05/09 04:12:30;;;;;;;8.07;7.47;;;8.50;99.90;;;;;;4983118;28;20599;-78
2021/05/09 04:14:57;;;;;;;8.43;7.83;;;8.50;99.90;;;;;;4988235;28;20204;-77
2021/05/09 04:17:23;;;;;;;8.60;7.90;;;8.50;99.90;;;;;;4983179;28;20192;-78
2021/05/09 04:19:49;;;;;;;9.37;8.50;;;8.40;99.90;;;;;;4965575;28;20689;-77
2021/05/09 04:22:16;;;;;;;8.70;8.07;;;8.40;99.90;;;;;;4969398;28;20234;-78
2021/05/09 04:24:42;;;;;;;8.47;7.83;;;8.50;99.90;;;;;;4981125;28;20204;-77
2021/05/09 04:27:09;;;;;;;9.10;8.33;;;8.40;99.90;;;;;;4976142;28;20223;-78
2021/05/09 04:29:36;;;;;;;8.40;7.80;;;8.50;99.90;;;;;;4978114;28;20226;-78
2021/05/09 04:32:03;;;;;;;8.70;8.00;;;8.50;99.90;;;;;;4970871;28;20224;-78
2021/05/09 04:34:29;;;;;;;9.10;8.40;;;8.60;99.90;;;;;;4956376;28;20216;-76
2021/05/09 04:36:55;;;;;;;8.87;8.17;;;8.70;99.90;;;;;;4956847;28;20204;-77
2021/05/09 04:39:22;;;;;;;8.57;7.87;;;8.80;99.90;;;;;;4980958;28;20195;-76
2021/05/09 04:41:48;;;;;;;8.70;8.00;;;9.00;99.90;;;;;;4968601;28;20239;-76
2021/05/09 04:44:15;;;;;;;8.97;8.17;;;9.20;99.90;;;;;;4963647;28;20666;-76
2021/05/09 04:46:42;;;;;;;9.27;8.57;;;9.50;99.90;;;;;;4982943;28;20224;-75
2021/05/09 04:49:08;;;;;;;8.90;8.20;;;9.90;99.90;;;;;;4986330;28;20200;-76
2021/05/09 04:51:35;;;;;;;8.10;7.40;;;10.20;99.90;;;;;;4959623;28;20595;-75
2021/05/09 04:54:01;;;;;;;6.57;6.03;;;10.30;99.90;;;;;;4989501;28;20208;-75
2021/05/09 04:56:27;;;;;;;8.30;7.60;;;10.40;99.90;;;;;;4963658;28;20190;-76
2021/05/09 04:58:54;;;;;;;6.80;6.20;;;10.40;99.90;;;;;;4972681;28;20206;-76
2021/05/09 05:01:21;;;;;;;7.50;6.90;;;10.50;99.90;;;;;;5007728;22;20228;-80
2021/05/09 05:03:47;;;;;;;7.27;6.47;;;10.60;99.90;;;;;;4987597;28;20201;-80
2021/05/09 05:06:15;;;;;;;6.87;6.27;;;10.90;99.90;;;;;;4996570;28;20224;-78
2021/05/09 05:08:41;;;;;;;6.67;6.07;;;11.40;99.90;;;;;;4993084;28;20203;-78
2021/05/09 05:11:08;;;;;;;5.10;4.60;;;12.00;99.90;;;;;;5000411;28;20219;-78
2021/05/09 05:13:35;;;;;;;4.40;4.00;;;12.50;99.90;;;;;;4972025;28;20229;-79
2021/05/09 05:16:03;;;;;;;6.77;6.17;;;13.00;99.90;;;;;;4997647;28;20288;-80
2021/05/09 05:18:31;;;;;;;7.47;6.97;;;13.40;99.90;;;;;;4978064;28;20201;-79
2021/05/09 05:21:01;;;;;;;6.80;6.20;;;13.80;99.90;;;;;;4991737;28;20310;-80
2021/05/09 05:23:28;;;;;;;7.30;6.70;;;14.20;99.90;;;;;;4981808;28;20209;-80
2021/05/09 05:25:55;;;;;;;6.07;5.57;;;14.70;99.90;;;;;;4995145;28;20210;-81
2021/05/09 05:28:22;;;;;;;4.70;3.33;;;15.10;99.90;;;;;;4978575;28;20259;-80
2021/05/09 05:30:48;;;;;;;4.27;3.87;;;15.40;99.90;;;;;;4981552;28;20300;-80
2021/05/09 05:33:26;;;;;;;3.53;3.23;;;15.70;99.90;;;;;;4996889;28;20204;-80
2021/05/09 05:35:53;;;;;;;4.03;3.53;;;16.10;99.90;;;;;;5005119;28;20192;-81
2021/05/09 05:38:20;;;;;;;4.30;3.37;;;16.50;99.90;;;;;;4985185;28;20256;-80
2021/05/09 05:40:49;;;;;;;7.83;7.13;;;17.00;99.90;;;;;;5006677;28;20688;-80
2021/05/09 05:43:16;;;;;;;7.47;6.87;;;17.50;99.90;;;;;;4984670;28;20205;-80
2021/05/09 05:45:42;;;;;;;5.50;5.07;;;17.80;99.90;;;;;;5002356;28;20222;-80
2021/05/09 05:48:09;;;;;;;5.27;4.80;;;18.00;99.90;;;;;;4978477;28;20198;-81
2021/05/09 05:50:35;;;;;;;4.40;4.00;;;17.80;99.90;;;;;;5008066;28;20697;-81
2021/05/09 05:53:03;;;;;;;5.30;4.90;;;17.60;99.90;;;;;;4997541;28;20201;-80
2021/05/09 05:55:29;;;;;;;5.30;4.87;;;17.50;99.90;;;;;;5005085;28;20200;-80
2021/05/09 05:57:55;;;;;;;7.83;7.33;;;17.30;99.90;;;;;;4995332;28;20202;-79
2021/05/09 06:00:22;;;;;;;8.30;7.77;;;17.10;99.90;;;;;;5005335;28;20204;-80
2021/05/09 06:02:48;;;;;;;7.10;6.60;;;17.00;99.90;;;;;;4989541;28;20232;-80
2021/05/09 06:05:15;;;;;;;7.10;6.60;;;16.80;99.90;;;;;;4984958;28;20202;-81
2021/05/09 06:07:41;;;;;;;6.57;6.17;;;16.70;99.90;;;;;;4996023;28;20251;-80
2021/05/09 06:10:12;;;;;;;7.13;6.70;;;16.70;99.90;;;;;;4994108;28;20201;-81
2021/05/09 06:12:38;;;;;;;6.80;6.40;;;16.60;99.90;;;;;;4981285;28;20222;-80
2021/05/09 06:15:06;;;;;;;7.03;6.53;;;16.50;99.90;;;;;;4995355;28;20202;-81
2021/05/09 06:17:32;;;;;;;6.90;6.50;;;16.50;99.90;;;;;;4998450;28;20197;-82
2021/05/09 06:19:59;;;;;;;6.90;6.40;;;16.50;99.90;;;;;;4987643;28;20234;-81
2021/05/09 06:22:25;;;;;;;7.13;6.67;;;16.60;99.90;;;;;;4998626;28;20729;-81
2021/05/09 06:24:52;;;;;;;7.23;6.73;;;16.80;99.90;;;;;;4987118;28;20669;-81
2021/05/09 06:27:19;;;;;;;7.10;6.60;;;16.90;99.90;;;;;;4985084;28;20230;-80
2021/05/09 06:29:46;;;;;;;6.57;6.07;;;17.00;99.90;;;;;;4991692;28;20206;-81
2021/05/09 06:32:12;;;;;;;4.60;4.23;;;17.10;99.90;;;;;;4987400;28;20258;-80
2021/05/09 06:34:42;;;;;;;5.40;4.63;;;17.40;99.90;;;;;;4991685;28;20578;-79
2021/05/09 06:37:10;;;;;;;4.27;3.97;;;17.80;99.90;;;;;;4987360;28;20200;-80
2021/05/09 06:39:37;;;;;;;4.60;4.00;;;18.10;99.90;;;;;;4965038;28;20207;-81
2021/05/09 06:42:04;;;;;;;5.47;5.07;;;18.60;99.90;;;;;;4964751;28;20257;-80
2021/05/09 06:44:34;;;;;;;5.23;4.80;;;19.00;99.90;;;;;;4970484;28;20230;-78
2021/05/09 06:47:01;;;;;;;3.70;3.40;;;19.20;99.90;;;;;;4978828;28;20285;-79
2021/05/09 06:49:28;;;;;;;5.50;5.10;;;19.40;99.90;;;;;;5000020;28;20632;-80
2021/05/09 06:51:55;;;;;;;4.90;4.60;;;19.50;99.90;;;;;;4988031;28;20237;-80
2021/05/09 06:54:27;;;;;;;4.60;4.30;;;20.00;99.90;;;;;;4988158;28;20203;-80
2021/05/09 06:56:54;;;;;;;6.53;6.03;;;20.30;99.90;;;;;;4993775;28;20268;-79
2021/05/09 06:59:21;;;;;;;4.87;4.47;;;20.60;99.90;;;;;;4990487;28;20682;-78
2021/05/09 07:01:48;;;;;;;6.10;5.70;;;20.90;99.90;;;;;;4981533;28;20228;-79
2021/05/09 07:04:15;;;;;;;4.47;4.20;;;21.40;99.90;;;;;;4982798;28;20201;-80
2021/05/09 07:06:42;;;;;;;4.13;3.83;;;21.80;99.90;;;;;;4981552;28;20308;-78
2021/05/09 07:09:10;;;;;;;6.87;6.37;;;22.10;99.90;;;;;;4981407;28;20200;-79
2021/05/09 07:11:37;;;;;;;6.70;6.30;;;22.40;99.90;;;;;;4963669;28;20225;-80
2021/05/09 07:14:04;;;;;;;7.07;6.57;;;22.70;99.90;;;;;;4988434;28;20212;-80
2021/05/09 07:16:31;;;;;;;6.70;6.30;;;23.00;99.90;;;;;;5005926;28;20193;-80
2021/05/09 07:19:00;;;;;;;7.03;6.60;;;23.30;99.90;;;;;;4985619;28;20572;-80
2021/05/09 07:21:28;;;;;;;7.30;6.80;;;23.60;99.90;;;;;;4976150;28;20316;-80
2021/05/09 07:23:55;;;;;;;6.50;6.10;;;23.70;99.90;;;;;;4986103;28;20689;-80
2021/05/09 07:26:21;;;;;;;6.67;6.27;;;23.80;99.90;;;;;;4988964;28;20227;-80
2021/05/09 07:28:48;;;;;;;6.10;5.60;;;24.10;99.90;;;;;;4982757;28;20203;-80
2021/05/09 07:31:15;;;;;;;6.20;5.80;;;24.10;99.90;;;;;;5005049;28;20217;-80
2021/05/09 07:33:42;;;;;;;6.77;6.33;;;24.40;99.70;;;;;;4986280;28;20202;-78
2021/05/09 07:36:10;;;;;;;7.10;6.20;;;24.60;99.90;;;;;;4979349;28;20211;-80
2021/05/09 07:38:36;;;;;;;6.13;5.80;;;24.50;99.90;;;;;;4974900;28;20253;-80
2021/05/09 07:41:03;;;;;;;6.53;6.13;;;24.50;99.90;;;;;;4972851;28;20270;-81
2021/05/09 07:43:31;;;;;;;6.60;6.20;;;24.80;98.60;;;;;;4961316;28;20291;-80
2021/05/09 07:45:58;;;;;;;7.00;6.50;;;25.00;99.10;;;;;;4973593;28;20221;-80
2021/05/09 07:48:24;;;;;;;6.50;6.10;;;25.10;99.20;;;;;;4964938;28;20209;-82
2021/05/09 07:50:51;;;;;;;6.70;6.30;;;25.10;98.30;;;;;;4965877;28;20340;-80
2021/05/09 07:53:19;;;;;;;6.60;6.20;;;25.50;97.60;;;;;;4977952;28;20204;-81
2021/05/09 07:55:58;;;;;;;6.37;5.97;;;25.60;97.70;;;;;;4963273;28;20193;-80
2021/05/09 07:58:29;;;;;;;6.60;6.20;;;25.70;97.00;;;;;;4979443;28;20277;-80
2021/05/09 08:00:55;;;;;;;6.10;5.80;;;25.80;96.30;;;;;;4986607;28;20279;-81
2021/05/09 08:03:22;;;;;;;6.60;6.20;;;25.90;96.40;;;;;;4988445;28;20208;-80
2021/05/09 08:05:48;;;;;;;6.93;6.43;;;26.00;96.60;;;;;;4985498;28;20217;-77
2021/05/09 08:08:15;;;;;;;6.70;6.20;;;26.20;96.80;;;;;;4982887;28;20208;-77
2021/05/09 08:10:43;;;;;;;6.60;6.20;;;26.30;96.20;;;;;;4979511;28;20228;-79
2021/05/09 08:13:11;;;;;;;6.67;6.27;;;26.50;96.60;;;;;;5008996;28;20215;-79
2021/05/09 08:15:38;;;;;;;6.53;6.10;;;26.50;95.60;;;;;;4997867;28;20197;-79
2021/05/09 08:18:05;;;;;;;6.67;6.27;;;26.50;95.20;;;;;;5008109;28;20255;-79
2021/05/09 08:20:32;;;;;;;6.50;6.10;;;26.70;95.50;;;;;;4990397;28;20208;-79
2021/05/09 08:22:59;;;;;;;6.70;6.20;;;26.90;95.40;;;;;;5009838;28;20205;-79
2021/05/09 08:25:25;;;;;;;6.57;6.07;;;27.00;95.50;;;;;;4985304;28;20580;-76
2021/05/09 08:27:52;;;;;;;6.80;6.30;;;27.10;95.30;;;;;;5000546;28;20204;-78
2021/05/09 08:30:21;;;;;;;6.70;6.20;;;27.30;95.00;;;;;;5002546;28;20658;-78
2021/05/09 08:32:47;;;;;;;6.40;6.10;;;27.30;94.60;;;;;;4966436;28;20213;-75
2021/05/09 08:35:14;;;;;;;6.77;6.30;;;27.20;94.50;;;;;;4978549;28;20207;-75
2021/05/09 08:37:41;;;;;;;6.87;6.37;;;27.30;94.40;;;;;;4992273;28;20202;-75
2021/05/09 08:40:09;;;;;;;6.60;6.20;;;27.50;94.70;;;;;;4998215;28;20197;-75
2021/05/09 08:42:36;;;;;;;6.90;6.40;;;27.80;93.70;;;;;;4979467;28;20214;-75
2021/05/09 08:45:04;;;;;;;6.67;6.27;;;27.90;93.00;;;;;;4977507;28;20205;-75
2021/05/09 08:47:39;;;;;;;6.43;6.03;;;27.80;94.00;;;;;;4977473;28;20224;-75
2021/05/09 08:50:08;;;;;;;6.50;6.10;;;28.10;93.80;;;;;;4983549;28;20211;-74
2021/05/09 08:52:36;;;;;;;7.03;6.53;;;28.40;93.70;;;;;;4978205;28;20272;-76
2021/05/09 08:55:04;;;;;;;6.87;6.37;;;28.40;92.70;;;;;;4964264;28;20198;-78
2021/05/09 08:57:31;;;;;;;6.60;6.20;;;28.70;92.80;;;;;;4980468;28;20570;-77
2021/05/09 08:59:57;;;;;;;8.23;6.57;;;29.20;93.10;;;;;;4979847;28;20202;-77
2021/05/09 09:02:24;;;;;;;7.00;6.50;;;29.60;92.60;;;;;;4978235;28;20230;-77
2021/05/09 09:04:52;;;;;;;5.20;4.80;;;29.80;92.30;;;;;;4979315;28;20264;-78
2021/05/09 09:07:19;;;;;;;6.60;6.20;;;30.00;91.90;;;;;;4987662;28;20217;-77
2021/05/09 09:09:47;;;;;;;6.73;6.17;;;30.10;90.10;;;;;;4985005;28;20663;-77
2021/05/09 09:12:15;;;;;;;6.60;6.13;;;30.10;91.30;;;;;;4980913;28;20221;-78
2021/05/09 09:14:53;;;;;;;6.70;6.30;;;30.20;91.40;;;;;;4986446;28;20565;-77
2021/05/09 09:17:19;;;;;;;5.00;4.70;;;30.40;90.40;;;;;;4959068;28;20256;-77
2021/05/09 09:20:13;;;;;;;5.60;5.20;;;30.40;89.50;;;;;;4962312;28;20294;-77
2021/05/09 09:22:57;;;;;;;5.00;4.60;;;30.50;90.40;;;;;;4965081;28;20225;-77
2021/05/09 09:25:26;;;;;;;6.30;5.80;;;30.50;83.10;;;;;;4982671;28;20215;-77
2021/05/09 09:27:53;;;;;;;6.73;6.23;;;30.80;86.30;;;;;;4965207;28;20218;-78
2021/05/09 09:30:22;;;;;;;6.37;6.07;;;31.00;86.70;;;;;;4974323;28;20282;-78
2021/05/09 09:33:14;;;;;;;6.30;5.90;;;31.20;84.70;;;;;;4996384;28;20223;-77
2021/05/09 09:35:42;;;;;;;4.47;4.17;;;31.30;84.80;;;;;;4971313;28;20258;-77
2021/05/09 09:38:26;;;;;;;5.67;5.37;;;31.20;77.80;;;;;;4971652;28;20590;-77
2021/05/09 09:41:11;;;;;;;6.07;5.77;;;31.20;76.10;;;;;;4977557;28;20218;-77
2021/05/09 09:43:38;;;;;;;6.10;5.80;;;31.10;69.20;;;;;;4980588;28;20201;-78
2021/05/09 09:46:05;;;;;;;6.10;5.80;;;31.30;69.10;;;;;;4988333;28;20697;-77
2021/05/09 09:48:39;;;;;;;6.20;5.80;;;31.40;64.80;;;;;;4961688;28;20562;-78
2021/05/09 09:51:08;;;;;;;6.10;5.70;;;31.60;68.90;;;;;;4981110;28;20243;-77
2021/05/09 09:53:37;;;;;;;6.13;5.80;;;31.80;66.80;;;;;;4977437;28;20198;-77
2021/05/09 09:56:05;;;;;;;6.07;5.77;;;31.70;64.40;;;;;;4963239;28;20189;-77
2021/05/09 09:58:50;;;;;;;6.00;5.70;;;31.90;63.80;;;;;;4961493;28;20198;-77
2021/05/09 10:01:19;;;;;;;5.87;5.57;;;31.90;64.40;;;;;;4979310;28;20224;-77
2021/05/09 10:03:46;;;;;;;5.90;5.60;;;32.00;60.70;;;;;;4975369;28;20658;-78
2021/05/09 10:06:14;;;;;;;6.10;5.70;;;31.70;59.20;;;;;;4975999;28;20243;-79
2021/05/09 10:08:41;;;;;;;5.97;5.67;;;31.70;60.90;;;;;;4987972;28;20212;-78
2021/05/09 10:11:08;;;;;;;6.03;5.73;;;31.80;62.50;;;;;;4979568;28;20239;-78
2021/05/09 10:13:35;;;;;;;6.03;5.63;;;31.80;63.60;;;;;;5004372;28;20205;-79
2021/05/09 10:16:03;;;;;;;6.70;6.20;;;31.70;59.20;;;;;;5000195;28;20197;-77
2021/05/09 10:18:30;;;;;;;6.23;5.87;;;31.50;61.30;;;;;;4976236;28;20208;-78
2021/05/09 10:20:56;;;;;;;5.80;5.50;;;31.40;60.60;;;;;;4978740;28;20239;-78
2021/05/09 10:23:24;;;;;;;6.30;5.90;;;31.20;59.10;;;;;;4967764;28;20204;-78
2021/05/09 10:25:52;;;;;;;6.20;5.80;;;31.10;59.50;;;;;;4982740;28;20202;-77
2021/05/09 10:28:19;;;;;;;6.23;5.67;;;31.10;62.70;;;;;;4998859;28;20208;-78
2021/05/09 10:30:49;;;;;;;6.50;6.00;;;31.10;60.20;;;;;;4996205;28;20202;-78
2021/05/09 10:33:43;;;;;;;6.10;5.80;;;31.10;61.10;;;;;;5002545;28;20186;-79
2021/05/09 10:36:31;;;;;;;5.93;5.63;;;31.00;61.10;;;;;;5000747;28;20196;-79
2021/05/09 10:39:16;;;;;;;6.50;6.10;;;30.90;62.40;;;;;;5006286;28;20196;-78
2021/05/09 10:42:17;;;;;;;6.67;6.17;;;30.60;61.30;;;;;;5003640;28;20229;-78
2021/05/09 10:44:46;;;;;;;6.57;6.17;;;30.60;61.30;;;;;;4982185;28;20204;-77
2021/05/09 10:47:16;;;;;;;5.80;5.40;;;30.40;59.40;;;;;;5008624;28;20231;-79
2021/05/09 10:50:30;;;;;;;5.90;5.50;;;30.20;60.80;;;;;;5008348;28;20212;-78
2021/05/09 10:52:57;;;;;;;5.80;5.40;;;30.20;60.70;;;;;;5000278;28;20215;-78
2021/05/09 10:55:41;;;;;;;5.80;5.40;;;30.20;61.80;;;;;;5004706;28;20205;-80
2021/05/09 10:58:09;;;;;;;6.00;5.60;;;30.20;61.70;;;;;;4994398;28;20196;-77
2021/05/09 11:01:13;;;;;;;6.00;5.70;;;30.00;60.60;;;;;;5010304;28;20624;-79
2021/05/09 11:03:51;;;;;;;5.80;5.50;;;29.80;60.60;;;;;;5002723;28;20204;-78
2021/05/09 11:06:19;;;;;;;5.83;5.43;;;29.70;60.60;;;;;;5005384;28;20220;-79
2021/05/09 11:08:56;;;;;;;5.97;5.67;;;29.60;59.80;;;;;;4975637;28;20213;-78
2021/05/09 11:11:57;;;;;;;6.23;5.80;;;29.40;59.10;;;;;;4981745;28;20243;-78
2021/05/09 11:14:23;;;;;;;5.90;5.60;;;29.30;59.70;;;;;;4988917;28;20196;-79
2021/05/09 11:17:04;;;;;;;5.60;5.20;;;29.30;60.30;;;;;;4999120;28;20201;-76
2021/05/09 11:19:47;;;;;;;5.63;5.33;;;29.30;61.30;;;;;;5001554;28;20204;-76
2021/05/09 11:22:19;;;;;;;5.40;5.10;;;29.30;61.60;;;;;;5001727;28;20303;-77
2021/05/09 11:24:46;;;;;;;5.60;5.30;;;29.50;62.30;;;;;;4997065;28;20267;-75
2021/05/09 11:27:16;;;;;;;5.70;5.40;;;29.60;60.80;;;;;;4983645;28;20231;-75
2021/05/09 11:29:48;;;;;;;5.63;5.33;;;29.50;62.00;;;;;;5005092;28;20685;-75
2021/05/09 11:32:16;;;;;;;5.60;5.20;;;29.40;61.10;;;;;;4996295;28;20220;-77
2021/05/09 11:34:50;;;;;;;5.90;5.40;;;29.10;59.80;;;;;;5001690;28;20208;-75
2021/05/09 11:37:18;;;;;;;5.70;5.40;;;28.90;61.70;;;;;;4983628;28;20196;-76
2021/05/09 11:39:45;;;;;;;5.70;5.40;;;28.90;63.00;;;;;;4999898;28;20204;-76
2021/05/09 11:42:15;;;;;;;5.70;5.40;;;29.00;62.60;;;;;;4976061;28;20228;-75
2021/05/09 11:44:43;;;;;;;5.40;5.10;;;29.00;61.70;;;;;;4988518;28;20197;-76
2021/05/09 11:47:12;;;;;;;5.87;5.47;;;29.00;61.80;;;;;;4991769;28;20223;-75
2021/05/09 11:49:39;;;;;;;5.60;5.20;;;29.00;61.60;;;;;;5001707;28;20193;-75
2021/05/09 11:52:09;;;;;;;5.37;5.07;;;29.00;62.30;;;;;;4984523;28;20602;-75
2021/05/09 11:54:38;;;;;;;5.60;5.30;;;29.00;63.30;;;;;;4985935;28;20217;-76
2021/05/09 11:57:06;;;;;;;5.40;5.10;;;29.00;61.70;;;;;;5007552;28;20207;-76
2021/05/09 11:59:44;;;;;;;5.43;5.13;;;29.00;60.20;;;;;;5000386;28;20189;-76
2021/05/09 12:02:27;;;;;;;5.57;5.27;;;28.90;59.80;;;;;;4998602;28;20220;-76
2021/05/09 12:04:56;;;;;;;5.60;5.30;;;29.10;62.10;;;;;;4978489;28;20237;-75
2021/05/09 12:07:25;;;;;;;5.50;5.20;;;29.10;61.10;;;;;;5006177;28;20220;-76
2021/05/09 12:09:54;;;;;;;5.87;5.53;;;29.20;59.60;;;;;;4995009;28;20193;-77
2021/05/09 12:12:22;;;;;;;6.20;5.60;;;29.10;58.80;;;;;;5007464;28;20220;-76
2021/05/09 12:14:53;;;;;;;6.00;5.60;;;28.90;58.70;;;;;;4998027;28;20233;-76
2021/05/09 12:17:24;;;;;;;5.77;5.37;;;28.80;58.90;;;;;;4990598;28;20235;-76
2021/05/09 12:19:51;;;;;;;5.30;5.00;;;28.80;58.30;;;;;;4998310;28;20609;-76
2021/05/09 12:22:18;;;;;;;5.00;4.80;;;28.80;59.50;;;;;;4997154;28;20222;-76
2021/05/09 12:24:49;;;;;;;5.20;4.90;;;28.80;59.50;;;;;;4984011;28;20212;-76
2021/05/09 12:27:17;;;;;;;4.90;4.60;;;28.80;59.10;;;;;;4977122;28;20210;-76
2021/05/09 12:29:44;;;;;;;4.83;4.63;;;28.80;59.60;;;;;;4983240;28;20196;-76
2021/05/09 12:32:24;;;;;;;5.00;4.70;;;28.90;60.10;;;;;;4978260;28;20232;-76
2021/05/09 12:35:05;;;;;;;5.30;5.00;;;28.90;60.20;;;;;;4984234;28;20196;-77
2021/05/09 12:37:32;;;;;;;5.40;5.10;;;28.90;59.00;;;;;;4995659;28;20190;-76
2021/05/09 12:40:20;;;;;;;5.20;4.90;;;28.70;59.10;;;;;;4989599;28;20212;-75
2021/05/09 12:42:58;;;;;;;5.20;4.90;;;28.80;60.20;;;;;;4976565;28;20242;-76
2021/05/09 12:45:43;;;;;;;5.50;5.10;;;28.80;60.10;;;;;;4978125;28;20650;-76
2021/05/09 12:48:16;;;;;;;5.20;4.90;;;28.90;60.00;;;;;;4996940;28;20295;-76
2021/05/09 12:50:53;;;;;;;5.20;4.80;;;28.90;60.10;;;;;;4978248;28;20717;-75
2021/05/09 12:53:39;;;;;;;5.13;4.80;;;29.00;59.30;;;;;;4978024;28;20212;-76
2021/05/09 12:56:27;;;;;;;5.50;5.10;;;28.90;60.80;;;;;;4976663;28;20209;-76
2021/05/09 12:59:05;;;;;;;4.93;4.73;;;28.90;60.50;;;;;;5002215;28;20204;-75
2021/05/09 13:01:34;;;;;;;5.33;4.97;;;29.00;61.60;;;;;;4972155;28;20240;-75